sensor_id;sensor_type;location;lat;lon;timestamp;temperature;humidity
26270;DHT22;15937;50.612;6.656;2023-08-30T00:03:47;15.00;99.90
26270;DHT22;15937;50.612;6.656;2023-08-30T00:07:49;15.00;99.90
26270;DHT22;15937;50.612;6.656;2023-08-30T00:11:51;15.10;99.90
26270;DHT22;15937;50.612;6.656;2023-08-30T00:15:52;15.00;99.90
26270;DHT22;15937;50.612;6.656;2023-08-30T00:19:54;14.90;99.90
26270;DHT22;15937;50.612;6.656;2023-08-30T00:23:56;14.70;99.90
26270;DHT22;15937;50.612;6.656;2023-08-30T00:27:58;14.50;99.90
26270;DHT22;15937;50.612;6.656;2023-08-30T00:32:00;14.40;99.90
26270;DHT22;15937;50.612;6.656;2023-08-30T00:36:01;14.60;99.90
26270;DHT22;15937;50.612;6.656;2023-08-30T00:40:03;14.60;99.90
26270;DHT22;15937;50.612;6.656;2023-08-30T00:44:05;14.40;99.90
26270;DHT22;15937;50.612;6.656;2023-08-30T00:48:07;14.50;99.90
26270;DHT22;15937;50.612;6.656;2023-08-30T00:52:10;14.60;99.90
26270;DHT22;15937;50.612;6.656;2023-08-30T00:56:12;14.40;99.90
26270;DHT22;15937;50.612;6.656;2023-08-30T01:00:13;14.40;99.90
26270;DHT22;15937;50.612;6.656;2023-08-30T01:04:15;14.40;99.90
26270;DHT22;15937;50.612;6.656;2023-08-30T01:08:17;14.40;99.90
26270;DHT22;15937;50.612;6.656;2023-08-30T01:12:20;14.30;99.90
26270;DHT22;15937;50.612;6.656;2023-08-30T01:16:23;14.30;99.90
26270;DHT22;15937;50.612;6.656;2023-08-30T01:20:26;14.30;99.90
26270;DHT22;15937;50.612;6.656;2023-08-30T01:24:30;14.30;99.90
26270;DHT22;15937;50.612;6.656;2023-08-30T01:28:34;14.40;99.90
26270;DHT22;15937;50.612;6.656;2023-08-30T01:32:37;14.30;99.90
26270;DHT22;15937;50.612;6.656;2023-08-30T01:36:40;14.20;99.90
26270;DHT22;15937;50.612;6.656;2023-08-30T01:40:44;14.30;99.90
26270;DHT22;15937;50.612;6.656;2023-08-30T01:44:49;14.10;99.90
26270;DHT22;15937;50.612;6.656;2023-08-30T01:48:55;14.10;99.90
26270;DHT22;15937;50.612;6.656;2023-08-30T01:52:59;14.20;99.90
26270;DHT22;15937;50.612;6.656;2023-08-30T01:57:01;14.30;99.90
26270;DHT22;15937;50.612;6.656;2023-08-30T02:01:03;14.40;99.90
26270;DHT22;15937;50.612;6.656;2023-08-30T02:05:05;14.30;99.90
26270;DHT22;15937;50.612;6.656;2023-08-30T02:09:29;14.30;99.90
26270;DHT22;15937;50.612;6.656;2023-08-30T02:13:29;14.40;99.90
26270;DHT22;15937;50.612;6.656;2023-08-30T02:17:32;14.50;99.90
26270;DHT22;15937;50.612;6.656;2023-08-30T02:21:34;14.50;99.90
26270;DHT22;15937;50.612;6.656;2023-08-30T02:25:36;14.50;99.90
26270;DHT22;15937;50.612;6.656;2023-08-30T02:29:38;14.40;99.90
26270;DHT22;15937;50.612;6.656;2023-08-30T02:33:40;14.40;99.90
26270;DHT22;15937;50.612;6.656;2023-08-30T02:37:46;14.30;99.90
26270;DHT22;15937;50.612;6.656;2023-08-30T02:41:49;14.30;99.90
26270;DHT22;15937;50.612;6.656;2023-08-30T02:45:51;14.20;99.90
26270;DHT22;15937;50.612;6.656;2023-08-30T02:49:56;14.20;99.90
26270;DHT22;15937;50.612;6.656;2023-08-30T02:53:58;14.20;99.90
26270;DHT22;15937;50.612;6.656;2023-08-30T02:58:01;14.20;99.90
26270;DHT22;15937;50.612;6.656;2023-08-30T03:02:03;14.20;99.90
26270;DHT22;15937;50.612;6.656;2023-08-30T03:06:05;14.10;99.90
26270;DHT22;15937;50.612;6.656;2023-08-30T03:10:08;14.10;99.90
26270;DHT22;15937;50.612;6.656;2023-08-30T03:14:10;14.10;99.90
26270;DHT22;15937;50.612;6.656;2023-08-30T03:18:12;14.00;99.90
26270;DHT22;15937;50.612;6.656;2023-08-30T03:22:14;14.10;99.90
26270;DHT22;15937;50.612;6.656;2023-08-30T03:26:19;14.00;99.90
26270;DHT22;15937;50.612;6.656;2023-08-30T03:31:26;14.00;99.90
26270;DHT22;15937;50.612;6.656;2023-08-30T03:35:27;13.90;99.90
26270;DHT22;15937;50.612;6.656;2023-08-30T03:39:36;13.90;99.90
26270;DHT22;15937;50.612;6.656;2023-08-30T03:43:39;13.90;99.90
26270;DHT22;15937;50.612;6.656;2023-08-30T03:47:56;13.80;99.90
26270;DHT22;15937;50.612;6.656;2023-08-30T03:51:58;13.60;99.90
26270;DHT22;15937;50.612;6.656;2023-08-30T03:56:00;13.50;99.90
26270;DHT22;15937;50.612;6.656;2023-08-30T04:00:02;13.30;99.90
26270;DHT22;15937;50.612;6.656;2023-08-30T04:04:05;13.20;99.90
26270;DHT22;15937;50.612;6.656;2023-08-30T04:08:07;13.10;99.90
26270;DHT22;15937;50.612;6.656;2023-08-30T04:12:12;13.10;99.90
26270;DHT22;15937;50.612;6.656;2023-08-30T04:16:13;13.00;99.90
26270;DHT22;15937;50.612;6.656;2023-08-30T04:20:15;13.00;99.90
26270;DHT22;15937;50.612;6.656;2023-08-30T04:24:17;12.90;99.90
26270;DHT22;15937;50.612;6.656;2023-08-30T04:28:19;12.80;99.90
26270;DHT22;15937;50.612;6.656;2023-08-30T04:32:20;12.80;99.90
26270;DHT22;15937;50.612;6.656;2023-08-30T04:36:22;12.70;99.90
26270;DHT22;15937;50.612;6.656;2023-08-30T04:40:24;12.70;99.90
26270;DHT22;15937;50.612;6.656;2023-08-30T04:44:28;12.60;99.90
26270;DHT22;15937;50.612;6.656;2023-08-30T04:48:29;12.60;99.90
26270;DHT22;15937;50.612;6.656;2023-08-30T04:52:31;12.60;99.90
26270;DHT22;15937;50.612;6.656;2023-08-30T04:56:33;12.60;99.90
26270;DHT22;15937;50.612;6.656;2023-08-30T05:00:35;12.60;99.90
26270;DHT22;15937;50.612;6.656;2023-08-30T05:04:37;12.40;99.90
26270;DHT22;15937;50.612;6.656;2023-08-30T05:08:39;12.20;99.90
26270;DHT22;15937;50.612;6.656;2023-08-30T05:12:40;11.90;99.90
26270;DHT22;15937;50.612;6.656;2023-08-30T05:16:44;12.10;99.90
26270;DHT22;15937;50.612;6.656;2023-08-30T05:20:45;12.20;99.90
26270;DHT22;15937;50.612;6.656;2023-08-30T05:24:47;12.30;99.90
26270;DHT22;15937;50.612;6.656;2023-08-30T05:28:49;12.30;99.90
26270;DHT22;15937;50.612;6.656;2023-08-30T05:32:51;12.30;99.90
26270;DHT22;15937;50.612;6.656;2023-08-30T05:36:53;12.40;99.90
26270;DHT22;15937;50.612;6.656;2023-08-30T05:40:54;12.40;99.90
26270;DHT22;15937;50.612;6.656;2023-08-30T05:44:56;12.70;99.90
26270;DHT22;15937;50.612;6.656;2023-08-30T05:48:58;12.90;99.90
26270;DHT22;15937;50.612;6.656;2023-08-30T05:53:02;13.20;99.90
26270;DHT22;15937;50.612;6.656;2023-08-30T05:57:05;13.30;99.90
26270;DHT22;15937;50.612;6.656;2023-08-30T06:01:07;13.50;99.90
26270;DHT22;15937;50.612;6.656;2023-08-30T06:05:09;13.60;99.90
26270;DHT22;15937;50.612;6.656;2023-08-30T06:09:12;13.60;99.90
26270;DHT22;15937;50.612;6.656;2023-08-30T06:13:14;13.60;99.90
26270;DHT22;15937;50.612;6.656;2023-08-30T06:17:17;13.50;99.90
26270;DHT22;15937;50.612;6.656;2023-08-30T06:21:19;13.60;99.90
26270;DHT22;15937;50.612;6.656;2023-08-30T06:25:20;13.60;99.90
26270;DHT22;15937;50.612;6.656;2023-08-30T06:29:22;13.70;99.90
26270;DHT22;15937;50.612;6.656;2023-08-30T06:33:24;14.00;99.90
26270;DHT22;15937;50.612;6.656;2023-08-30T06:37:26;14.20;99.90
26270;DHT22;15937;50.612;6.656;2023-08-30T06:41:29;14.60;99.90
26270;DHT22;15937;50.612;6.656;2023-08-30T06:45:31;14.80;99.90
26270;DHT22;15937;50.612;6.656;2023-08-30T06:49:33;15.10;99.90
26270;DHT22;15937;50.612;6.656;2023-08-30T06:53:37;15.20;99.90
26270;DHT22;15937;50.612;6.656;2023-08-30T06:57:39;15.40;99.90
26270;DHT22;15937;50.612;6.656;2023-08-30T07:01:41;15.50;99.90
26270;DHT22;15937;50.612;6.656;2023-08-30T07:05:43;15.80;99.90
26270;DHT22;15937;50.612;6.656;2023-08-30T07:09:45;16.10;99.90
26270;DHT22;15937;50.612;6.656;2023-08-30T07:13:46;16.20;99.90
26270;DHT22;15937;50.612;6.656;2023-08-30T07:17:48;16.30;99.90
26270;DHT22;15937;50.612;6.656;2023-08-30T07:21:55;16.40;99.90
26270;DHT22;15937;50.612;6.656;2023-08-30T07:25:56;16.60;99.90
26270;DHT22;15937;50.612;6.656;2023-08-30T07:29:58;16.70;99.90
26270;DHT22;15937;50.612;6.656;2023-08-30T07:34:00;16.90;99.90
26270;DHT22;15937;50.612;6.656;2023-08-30T07:38:01;17.10;99.90
26270;DHT22;15937;50.612;6.656;2023-08-30T07:42:04;17.00;99.90
26270;DHT22;15937;50.612;6.656;2023-08-30T07:46:05;17.30;99.90
26270;DHT22;15937;50.612;6.656;2023-08-30T07:50:07;17.30;99.90
26270;DHT22;15937;50.612;6.656;2023-08-30T07:54:09;17.30;99.90
26270;DHT22;15937;50.612;6.656;2023-08-30T07:58:11;17.60;99.90
26270;DHT22;15937;50.612;6.656;2023-08-30T08:02:13;17.70;99.90
26270;DHT22;15937;50.612;6.656;2023-08-30T08:06:14;17.40;99.90
26270;DHT22;15937;50.612;6.656;2023-08-30T08:10:16;17.60;99.90
26270;DHT22;15937;50.612;6.656;2023-08-30T08:14:18;17.70;99.90
26270;DHT22;15937;50.612;6.656;2023-08-30T08:18:20;18.00;99.90
26270;DHT22;15937;50.612;6.656;2023-08-30T08:22:21;18.00;99.90
26270;DHT22;15937;50.612;6.656;2023-08-30T08:26:24;18.20;99.90
26270;DHT22;15937;50.612;6.656;2023-08-30T08:30:26;18.10;99.90
26270;DHT22;15937;50.612;6.656;2023-08-30T08:34:28;18.00;99.90
26270;DHT22;15937;50.612;6.656;2023-08-30T08:38:30;17.90;99.90
26270;DHT22;15937;50.612;6.656;2023-08-30T08:42:35;17.90;99.90
26270;DHT22;15937;50.612;6.656;2023-08-30T08:46:38;18.10;99.90
26270;DHT22;15937;50.612;6.656;2023-08-30T08:50:40;18.70;99.90
26270;DHT22;15937;50.612;6.656;2023-08-30T08:54:42;18.70;99.90
26270;DHT22;15937;50.612;6.656;2023-08-30T08:58:44;18.70;99.90
26270;DHT22;15937;50.612;6.656;2023-08-30T09:02:46;18.40;99.90
26270;DHT22;15937;50.612;6.656;2023-08-30T09:06:48;18.10;99.90
26270;DHT22;15937;50.612;6.656;2023-08-30T09:10:50;18.20;99.90
26270;DHT22;15937;50.612;6.656;2023-08-30T09:14:52;18.20;99.90
26270;DHT22;15937;50.612;6.656;2023-08-30T09:18:58;18.40;99.90
26270;DHT22;15937;50.612;6.656;2023-08-30T09:23:21;18.20;99.90
26270;DHT22;15937;50.612;6.656;2023-08-30T09:27:30;18.30;99.90
26270;DHT22;15937;50.612;6.656;2023-08-30T09:31:33;18.20;99.90
26270;DHT22;15937;50.612;6.656;2023-08-30T09:35:39;18.40;99.90
26270;DHT22;15937;50.612;6.656;2023-08-30T09:39:48;18.40;99.90
26270;DHT22;15937;50.612;6.656;2023-08-30T09:43:50;18.30;99.90
26270;DHT22;15937;50.612;6.656;2023-08-30T09:48:08;18.30;99.90
26270;DHT22;15937;50.612;6.656;2023-08-30T09:52:12;18.40;99.90
26270;DHT22;15937;50.612;6.656;2023-08-30T09:56:16;18.50;99.90
26270;DHT22;15937;50.612;6.656;2023-08-30T10:00:18;18.40;99.90
26270;DHT22;15937;50.612;6.656;2023-08-30T10:04:20;18.60;99.90
26270;DHT22;15937;50.612;6.656;2023-08-30T10:08:22;18.70;99.90
26270;DHT22;15937;50.612;6.656;2023-08-30T10:12:24;18.60;99.90
26270;DHT22;15937;50.612;6.656;2023-08-30T10:16:27;18.60;99.90
26270;DHT22;15937;50.612;6.656;2023-08-30T10:20:31;18.60;99.90
26270;DHT22;15937;50.612;6.656;2023-08-30T10:24:41;18.70;99.90
26270;DHT22;15937;50.612;6.656;2023-08-30T10:29:03;18.60;99.90
26270;DHT22;15937;50.612;6.656;2023-08-30T10:33:13;18.70;99.90
26270;DHT22;15937;50.612;6.656;2023-08-30T10:37:15;19.00;99.90
26270;DHT22;15937;50.612;6.656;2023-08-30T10:41:25;18.90;99.90
26270;DHT22;15937;50.612;6.656;2023-08-30T10:45:27;18.80;99.90
26270;DHT22;15937;50.612;6.656;2023-08-30T10:49:29;19.00;99.90
26270;DHT22;15937;50.612;6.656;2023-08-30T10:53:30;19.50;99.90
26270;DHT22;15937;50.612;6.656;2023-08-30T10:57:32;19.70;99.90
26270;DHT22;15937;50.612;6.656;2023-08-30T11:01:35;19.50;99.90
26270;DHT22;15937;50.612;6.656;2023-08-30T11:05:37;19.40;99.90
26270;DHT22;15937;50.612;6.656;2023-08-30T11:09:41;19.20;99.90
26270;DHT22;15937;50.612;6.656;2023-08-30T11:13:43;19.10;99.90
26270;DHT22;15937;50.612;6.656;2023-08-30T11:17:45;18.60;99.90
26270;DHT22;15937;50.612;6.656;2023-08-30T11:21:47;18.60;99.90
26270;DHT22;15937;50.612;6.656;2023-08-30T11:25:50;18.60;99.90
26270;DHT22;15937;50.612;6.656;2023-08-30T11:29:51;18.80;99.90
26270;DHT22;15937;50.612;6.656;2023-08-30T11:33:53;18.60;99.90
26270;DHT22;15937;50.612;6.656;2023-08-30T11:37:57;18.70;99.90
26270;DHT22;15937;50.612;6.656;2023-08-30T11:41:59;18.70;99.90
26270;DHT22;15937;50.612;6.656;2023-08-30T11:46:17;18.70;99.90
26270;DHT22;15937;50.612;6.656;2023-08-30T11:50:19;18.50;99.90
26270;DHT22;15937;50.612;6.656;2023-08-30T11:54:23;18.60;99.90
26270;DHT22;15937;50.612;6.656;2023-08-30T11:58:25;18.80;99.90
26270;DHT22;15937;50.612;6.656;2023-08-30T12:02:27;18.40;99.90
26270;DHT22;15937;50.612;6.656;2023-08-30T12:06:29;18.30;99.90
26270;DHT22;15937;50.612;6.656;2023-08-30T12:10:31;17.80;99.90
26270;DHT22;15937;50.612;6.656;2023-08-30T12:14:35;17.20;99.90
26270;DHT22;15937;50.612;6.656;2023-08-30T12:18:36;17.30;99.90
26270;DHT22;15937;50.612;6.656;2023-08-30T12:22:40;17.40;99.90
26270;DHT22;15937;50.612;6.656;2023-08-30T12:26:42;17.30;99.90
26270;DHT22;15937;50.612;6.656;2023-08-30T12:30:43;17.50;99.90
26270;DHT22;15937;50.612;6.656;2023-08-30T12:34:45;17.50;99.90
26270;DHT22;15937;50.612;6.656;2023-08-30T12:38:47;17.40;99.90
26270;DHT22;15937;50.612;6.656;2023-08-30T12:42:48;17.60;99.90
26270;DHT22;15937;50.612;6.656;2023-08-30T12:46:50;17.50;99.90
26270;DHT22;15937;50.612;6.656;2023-08-30T12:50:52;17.20;99.90
26270;DHT22;15937;50.612;6.656;2023-08-30T12:54:54;17.20;99.90
26270;DHT22;15937;50.612;6.656;2023-08-30T12:58:55;17.30;99.90
26270;DHT22;15937;50.612;6.656;2023-08-30T13:02:57;17.40;99.90
26270;DHT22;15937;50.612;6.656;2023-08-30T13:06:59;17.20;99.90
26270;DHT22;15937;50.612;6.656;2023-08-30T13:11:01;17.50;99.90
26270;DHT22;15937;50.612;6.656;2023-08-30T13:15:04;17.30;99.90
26270;DHT22;15937;50.612;6.656;2023-08-30T13:19:06;17.10;99.90
26270;DHT22;15937;50.612;6.656;2023-08-30T13:23:07;17.00;99.90
26270;DHT22;15937;50.612;6.656;2023-08-30T13:27:10;16.80;99.90
26270;DHT22;15937;50.612;6.656;2023-08-30T13:31:11;16.70;99.90
26270;DHT22;15937;50.612;6.656;2023-08-30T13:35:13;16.80;99.90
26270;DHT22;15937;50.612;6.656;2023-08-30T13:39:15;16.80;99.90
26270;DHT22;15937;50.612;6.656;2023-08-30T13:43:17;16.70;99.90
26270;DHT22;15937;50.612;6.656;2023-08-30T13:47:19;16.70;99.90
26270;DHT22;15937;50.612;6.656;2023-08-30T13:51:22;16.90;99.90
26270;DHT22;15937;50.612;6.656;2023-08-30T13:55:24;17.00;99.90
26270;DHT22;15937;50.612;6.656;2023-08-30T13:59:26;17.10;99.90
26270;DHT22;15937;50.612;6.656;2023-08-30T14:03:29;16.80;99.90
26270;DHT22;15937;50.612;6.656;2023-08-30T14:07:31;17.00;99.90
26270;DHT22;15937;50.612;6.656;2023-08-30T14:11:34;16.60;99.90
26270;DHT22;15937;50.612;6.656;2023-08-30T14:15:36;16.50;99.90
26270;DHT22;15937;50.612;6.656;2023-08-30T14:19:38;15.80;99.90
26270;DHT22;15937;50.612;6.656;2023-08-30T14:23:40;14.30;99.90
26270;DHT22;15937;50.612;6.656;2023-08-30T14:27:42;14.50;99.90
26270;DHT22;15937;50.612;6.656;2023-08-30T14:31:44;14.50;99.90
26270;DHT22;15937;50.612;6.656;2023-08-30T14:35:46;14.30;99.90
26270;DHT22;15937;50.612;6.656;2023-08-30T14:39:48;14.50;99.90
26270;DHT22;15937;50.612;6.656;2023-08-30T14:43:53;14.50;99.90
26270;DHT22;15937;50.612;6.656;2023-08-30T14:47:54;14.40;99.90
26270;DHT22;15937;50.612;6.656;2023-08-30T14:51:56;14.50;99.90
26270;DHT22;15937;50.612;6.656;2023-08-30T14:55:58;15.20;99.90
26270;DHT22;15937;50.612;6.656;2023-08-30T15:00:00;15.40;99.90
26270;DHT22;15937;50.612;6.656;2023-08-30T15:04:02;15.40;99.90
26270;DHT22;15937;50.612;6.656;2023-08-30T15:08:04;15.80;99.90
26270;DHT22;15937;50.612;6.656;2023-08-30T15:12:06;15.50;99.90
26270;DHT22;15937;50.612;6.656;2023-08-30T15:16:08;15.80;99.90
26270;DHT22;15937;50.612;6.656;2023-08-30T15:20:09;15.90;99.90
26270;DHT22;15937;50.612;6.656;2023-08-30T15:24:11;15.90;99.90
26270;DHT22;15937;50.612;6.656;2023-08-30T15:28:14;15.80;99.90
26270;DHT22;15937;50.612;6.656;2023-08-30T15:32:16;16.10;99.90
26270;DHT22;15937;50.612;6.656;2023-08-30T15:36:18;16.40;99.90
26270;DHT22;15937;50.612;6.656;2023-08-30T15:40:19;16.10;99.90
26270;DHT22;15937;50.612;6.656;2023-08-30T15:44:21;16.40;99.90
26270;DHT22;15937;50.612;6.656;2023-08-30T15:48:23;16.20;99.90
26270;DHT22;15937;50.612;6.656;2023-08-30T15:52:25;16.40;99.90
26270;DHT22;15937;50.612;6.656;2023-08-30T15:56:27;16.00;99.90
26270;DHT22;15937;50.612;6.656;2023-08-30T16:00:29;16.10;99.90
26270;DHT22;15937;50.612;6.656;2023-08-30T16:04:31;16.30;99.90
26270;DHT22;15937;50.612;6.656;2023-08-30T16:08:35;16.40;99.90
26270;DHT22;15937;50.612;6.656;2023-08-30T16:12:37;15.90;99.90
26270;DHT22;15937;50.612;6.656;2023-08-30T16:16:39;16.00;99.90
26270;DHT22;15937;50.612;6.656;2023-08-30T16:20:43;16.20;99.90
26270;DHT22;15937;50.612;6.656;2023-08-30T16:24:44;16.10;99.90
26270;DHT22;15937;50.612;6.656;2023-08-30T16:28:46;16.10;99.90
26270;DHT22;15937;50.612;6.656;2023-08-30T16:32:48;16.00;99.90
26270;DHT22;15937;50.612;6.656;2023-08-30T16:36:50;15.90;99.90
26270;DHT22;15937;50.612;6.656;2023-08-30T16:40:52;15.90;99.90
26270;DHT22;15937;50.612;6.656;2023-08-30T16:44:53;15.80;99.90
26270;DHT22;15937;50.612;6.656;2023-08-30T16:48:55;15.80;99.90
26270;DHT22;15937;50.612;6.656;2023-08-30T16:52:57;15.90;99.90
26270;DHT22;15937;50.612;6.656;2023-08-30T16:56:59;15.90;99.90
26270;DHT22;15937;50.612;6.656;2023-08-30T17:01:00;15.80;99.90
26270;DHT22;15937;50.612;6.656;2023-08-30T17:05:02;16.00;99.90
26270;DHT22;15937;50.612;6.656;2023-08-30T17:09:04;16.30;99.90
26270;DHT22;15937;50.612;6.656;2023-08-30T17:13:06;16.70;99.90
26270;DHT22;15937;50.612;6.656;2023-08-30T17:17:08;16.70;99.90
26270;DHT22;15937;50.612;6.656;2023-08-30T17:21:10;16.50;99.90
26270;DHT22;15937;50.612;6.656;2023-08-30T17:25:13;16.30;99.90
26270;DHT22;15937;50.612;6.656;2023-08-30T17:29:14;16.00;99.90
26270;DHT22;15937;50.612;6.656;2023-08-30T17:33:16;15.80;99.90
26270;DHT22;15937;50.612;6.656;2023-08-30T17:37:18;15.70;99.90
26270;DHT22;15937;50.612;6.656;2023-08-30T17:41:20;15.80;99.90
26270;DHT22;15937;50.612;6.656;2023-08-30T17:45:21;15.80;99.90
26270;DHT22;15937;50.612;6.656;2023-08-30T17:49:23;15.70;99.90
26270;DHT22;15937;50.612;6.656;2023-08-30T17:53:29;15.60;99.90
26270;DHT22;15937;50.612;6.656;2023-08-30T17:57:30;15.60;99.90
26270;DHT22;15937;50.612;6.656;2023-08-30T18:01:32;15.50;99.90
26270;DHT22;15937;50.612;6.656;2023-08-30T18:05:34;15.60;99.90
26270;DHT22;15937;50.612;6.656;2023-08-30T18:09:36;15.50;99.90
26270;DHT22;15937;50.612;6.656;2023-08-30T18:13:39;15.50;99.90
26270;DHT22;15937;50.612;6.656;2023-08-30T18:17:42;15.50;99.90
26270;DHT22;15937;50.612;6.656;2023-08-30T18:21:44;15.40;99.90
26270;DHT22;15937;50.612;6.656;2023-08-30T18:25:46;15.50;99.90
26270;DHT22;15937;50.612;6.656;2023-08-30T18:29:48;15.40;99.90
26270;DHT22;15937;50.612;6.656;2023-08-30T18:33:58;15.40;99.90
26270;DHT22;15937;50.612;6.656;2023-08-30T18:38:00;15.40;99.90
26270;DHT22;15937;50.612;6.656;2023-08-30T18:42:04;15.40;99.90
26270;DHT22;15937;50.612;6.656;2023-08-30T18:46:06;15.40;99.90
26270;DHT22;15937;50.612;6.656;2023-08-30T18:50:08;15.30;99.90
26270;DHT22;15937;50.612;6.656;2023-08-30T18:54:13;15.30;99.90
26270;DHT22;15937;50.612;6.656;2023-08-30T18:58:14;15.30;99.90
26270;DHT22;15937;50.612;6.656;2023-08-30T19:02:17;15.20;99.90
26270;DHT22;15937;50.612;6.656;2023-08-30T19:06:18;15.10;99.90
26270;DHT22;15937;50.612;6.656;2023-08-30T19:10:21;15.00;99.90
26270;DHT22;15937;50.612;6.656;2023-08-30T19:14:23;14.80;99.90
26270;DHT22;15937;50.612;6.656;2023-08-30T19:18:29;14.80;99.90
26270;DHT22;15937;50.612;6.656;2023-08-30T19:22:36;14.80;99.90
26270;DHT22;15937;50.612;6.656;2023-08-30T19:26:41;14.70;99.90
26270;DHT22;15937;50.612;6.656;2023-08-30T19:30:43;14.80;99.90
26270;DHT22;15937;50.612;6.656;2023-08-30T19:34:48;14.60;99.90
26270;DHT22;15937;50.612;6.656;2023-08-30T19:38:50;14.60;99.90
26270;DHT22;15937;50.612;6.656;2023-08-30T19:42:52;14.50;99.90
26270;DHT22;15937;50.612;6.656;2023-08-30T19:46:54;14.50;99.90
26270;DHT22;15937;50.612;6.656;2023-08-30T19:50:58;14.30;99.90
26270;DHT22;15937;50.612;6.656;2023-08-30T19:55:00;14.30;99.90
26270;DHT22;15937;50.612;6.656;2023-08-30T19:59:02;14.20;99.90
26270;DHT22;15937;50.612;6.656;2023-08-30T20:03:05;14.20;99.90
26270;DHT22;15937;50.612;6.656;2023-08-30T20:07:16;14.10;99.90
26270;DHT22;15937;50.612;6.656;2023-08-30T20:11:18;14.10;99.90
26270;DHT22;15937;50.612;6.656;2023-08-30T20:15:19;14.10;99.90
26270;DHT22;15937;50.612;6.656;2023-08-30T20:19:24;14.10;99.90
26270;DHT22;15937;50.612;6.656;2023-08-30T20:23:25;13.80;99.90
26270;DHT22;15937;50.612;6.656;2023-08-30T20:27:27;13.80;99.90
26270;DHT22;15937;50.612;6.656;2023-08-30T20:31:29;13.80;99.90
26270;DHT22;15937;50.612;6.656;2023-08-30T20:35:31;13.70;99.90
26270;DHT22;15937;50.612;6.656;2023-08-30T20:39:36;13.60;99.90
26270;DHT22;15937;50.612;6.656;2023-08-30T20:43:41;13.50;99.90
26270;DHT22;15937;50.612;6.656;2023-08-30T20:47:43;13.60;99.90
26270;DHT22;15937;50.612;6.656;2023-08-30T20:51:46;13.40;99.90
26270;DHT22;15937;50.612;6.656;2023-08-30T20:55:47;13.50;99.90
26270;DHT22;15937;50.612;6.656;2023-08-30T20:59:49;13.50;99.90
26270;DHT22;15937;50.612;6.656;2023-08-30T21:03:51;13.50;99.90
26270;DHT22;15937;50.612;6.656;2023-08-30T21:07:54;13.50;99.90
26270;DHT22;15937;50.612;6.656;2023-08-30T21:11:56;13.50;99.90
26270;DHT22;15937;50.612;6.656;2023-08-30T21:15:58;13.40;99.90
26270;DHT22;15937;50.612;6.656;2023-08-30T21:19:59;13.30;99.90
26270;DHT22;15937;50.612;6.656;2023-08-30T21:24:01;13.30;99.90
26270;DHT22;15937;50.612;6.656;2023-08-30T21:28:03;13.20;99.90
26270;DHT22;15937;50.612;6.656;2023-08-30T21:32:05;13.30;99.90
26270;DHT22;15937;50.612;6.656;2023-08-30T21:36:10;13.20;99.90
26270;DHT22;15937;50.612;6.656;2023-08-30T21:40:11;13.20;99.90
26270;DHT22;15937;50.612;6.656;2023-08-30T21:44:13;13.20;99.90
26270;DHT22;15937;50.612;6.656;2023-08-30T21:48:15;13.10;99.90
26270;DHT22;15937;50.612;6.656;2023-08-30T21:52:17;13.10;99.90
26270;DHT22;15937;50.612;6.656;2023-08-30T21:56:19;13.00;99.90
26270;DHT22;15937;50.612;6.656;2023-08-30T22:00:20;13.10;99.90
26270;DHT22;15937;50.612;6.656;2023-08-30T22:04:22;13.10;99.90
26270;DHT22;15937;50.612;6.656;2023-08-30T22:08:26;13.00;99.90
26270;DHT22;15937;50.612;6.656;2023-08-30T22:12:28;12.80;99.90
26270;DHT22;15937;50.612;6.656;2023-08-30T22:16:32;13.00;99.90
26270;DHT22;15937;50.612;6.656;2023-08-30T22:20:38;13.00;99.90
26270;DHT22;15937;50.612;6.656;2023-08-30T22:24:39;13.00;99.90
26270;DHT22;15937;50.612;6.656;2023-08-30T22:28:45;13.00;99.90
26270;DHT22;15937;50.612;6.656;2023-08-30T22:32:46;13.10;99.90
26270;DHT22;15937;50.612;6.656;2023-08-30T22:36:48;13.10;99.90
26270;DHT22;15937;50.612;6.656;2023-08-30T22:40:50;13.10;99.90
26270;DHT22;15937;50.612;6.656;2023-08-30T22:44:52;13.10;99.90
26270;DHT22;15937;50.612;6.656;2023-08-30T22:48:54;13.00;99.90
26270;DHT22;15937;50.612;6.656;2023-08-30T22:52:56;13.10;99.90
26270;DHT22;15937;50.612;6.656;2023-08-30T22:56:57;13.10;99.90
26270;DHT22;15937;50.612;6.656;2023-08-30T23:01:00;13.10;99.90
26270;DHT22;15937;50.612;6.656;2023-08-30T23:05:03;13.10;99.90
26270;DHT22;15937;50.612;6.656;2023-08-30T23:09:07;13.00;99.90
26270;DHT22;15937;50.612;6.656;2023-08-30T23:13:09;13.00;99.90
26270;DHT22;15937;50.612;6.656;2023-08-30T23:17:11;13.10;99.90
26270;DHT22;15937;50.612;6.656;2023-08-30T23:21:13;13.10;99.90
26270;DHT22;15937;50.612;6.656;2023-08-30T23:25:15;13.10;99.90
26270;DHT22;15937;50.612;6.656;2023-08-30T23:29:17;13.20;99.90
26270;DHT22;15937;50.612;6.656;2023-08-30T23:33:19;13.10;99.90
26270;DHT22;15937;50.612;6.656;2023-08-30T23:37:20;13.10;99.90
26270;DHT22;15937;50.612;6.656;2023-08-30T23:41:22;13.20;99.90
26270;DHT22;15937;50.612;6.656;2023-08-30T23:45:24;13.20;99.90
26270;DHT22;15937;50.612;6.656;2023-08-30T23:49:30;13.20;99.90
26270;DHT22;15937;50.612;6.656;2023-08-30T23:53:32;13.30;99.90
26270;DHT22;15937;50.612;6.656;2023-08-30T23:57:34;13.20;99.90
